sensor_id;sensor_type;location;lat;lon;timestamp;temperature;humidity
71304;DHT22;59091;47.446;19.148;2024-02-21T00:00:56;9.30;71.12
71304;DHT22;59091;47.446;19.148;2024-02-21T00:03:21;9.14;71.32
71304;DHT22;59091;47.446;19.148;2024-02-21T00:05:46;9.14;71.20
71304;DHT22;59091;47.446;19.148;2024-02-21T00:08:12;9.28;70.95
71304;DHT22;59091;47.446;19.148;2024-02-21T00:10:37;9.36;70.58
71304;DHT22;59091;47.446;19.148;2024-02-21T00:13:03;9.14;70.63
71304;DHT22;59091;47.446;19.148;2024-02-21T00:15:28;9.07;70.71
71304;DHT22;59091;47.446;19.148;2024-02-21T00:17:54;9.08;70.72
71304;DHT22;59091;47.446;19.148;2024-02-21T00:20:19;9.03;70.63
71304;DHT22;59091;47.446;19.148;2024-02-21T00:22:45;8.84;70.61
71304;DHT22;59091;47.446;19.148;2024-02-21T00:25:10;9.03;70.47
71304;DHT22;59091;47.446;19.148;2024-02-21T00:27:36;9.13;70.19
71304;DHT22;59091;47.446;19.148;2024-02-21T00:30:02;9.13;69.99
71304;DHT22;59091;47.446;19.148;2024-02-21T00:32:28;9.20;69.89
71304;DHT22;59091;47.446;19.148;2024-02-21T00:34:53;9.20;69.93
71304;DHT22;59091;47.446;19.148;2024-02-21T00:37:18;9.31;69.61
71304;DHT22;59091;47.446;19.148;2024-02-21T00:39:44;9.38;69.36
71304;DHT22;59091;47.446;19.148;2024-02-21T00:42:09;9.35;69.41
71304;DHT22;59091;47.446;19.148;2024-02-21T00:44:35;9.32;69.52
71304;DHT22;59091;47.446;19.148;2024-02-21T00:47:00;9.34;69.42
71304;DHT22;59091;47.446;19.148;2024-02-21T00:49:26;9.35;69.14
71304;DHT22;59091;47.446;19.148;2024-02-21T00:51:51;9.27;69.51
71304;DHT22;59091;47.446;19.148;2024-02-21T00:54:16;9.36;69.27
71304;DHT22;59091;47.446;19.148;2024-02-21T00:56:42;9.24;69.45
71304;DHT22;59091;47.446;19.148;2024-02-21T00:59:08;9.32;69.53
71304;DHT22;59091;47.446;19.148;2024-02-21T01:01:33;9.51;69.02
71304;DHT22;59091;47.446;19.148;2024-02-21T01:03:59;9.48;69.12
71304;DHT22;59091;47.446;19.148;2024-02-21T01:06:24;9.56;69.00
71304;DHT22;59091;47.446;19.148;2024-02-21T01:08:49;9.56;68.85
71304;DHT22;59091;47.446;19.148;2024-02-21T01:11:15;9.52;68.92
71304;DHT22;59091;47.446;19.148;2024-02-21T01:13:41;9.55;68.99
71304;DHT22;59091;47.446;19.148;2024-02-21T01:16:07;9.51;69.01
71304;DHT22;59091;47.446;19.148;2024-02-21T01:18:33;9.52;69.07
71304;DHT22;59091;47.446;19.148;2024-02-21T01:20:59;9.55;68.94
71304;DHT22;59091;47.446;19.148;2024-02-21T01:23:24;9.61;68.88
71304;DHT22;59091;47.446;19.148;2024-02-21T01:25:50;9.63;68.86
71304;DHT22;59091;47.446;19.148;2024-02-21T01:28:16;9.59;68.80
71304;DHT22;59091;47.446;19.148;2024-02-21T01:30:41;9.68;68.58
71304;DHT22;59091;47.446;19.148;2024-02-21T01:33:07;9.71;68.52
71304;DHT22;59091;47.446;19.148;2024-02-21T01:35:32;9.71;68.36
71304;DHT22;59091;47.446;19.148;2024-02-21T01:37:57;9.68;68.26
71304;DHT22;59091;47.446;19.148;2024-02-21T01:40:23;9.46;67.75
71304;DHT22;59091;47.446;19.148;2024-02-21T01:42:48;9.28;68.09
71304;DHT22;59091;47.446;19.148;2024-02-21T01:45:14;9.27;68.12
71304;DHT22;59091;47.446;19.148;2024-02-21T01:47:39;9.10;67.94
71304;DHT22;59091;47.446;19.148;2024-02-21T01:50:05;9.25;67.65
71304;DHT22;59091;47.446;19.148;2024-02-21T01:52:31;9.28;67.53
71304;DHT22;59091;47.446;19.148;2024-02-21T01:54:59;9.13;67.49
71304;DHT22;59091;47.446;19.148;2024-02-21T01:57:24;9.04;67.97
71304;DHT22;59091;47.446;19.148;2024-02-21T01:59:50;9.03;67.97
71304;DHT22;59091;47.446;19.148;2024-02-21T02:02:15;8.90;68.34
71304;DHT22;59091;47.446;19.148;2024-02-21T02:04:42;8.96;68.60
71304;DHT22;59091;47.446;19.148;2024-02-21T02:07:08;9.04;68.23
71304;DHT22;59091;47.446;19.148;2024-02-21T02:09:34;9.05;68.34
71304;DHT22;59091;47.446;19.148;2024-02-21T02:12:00;9.13;68.05
71304;DHT22;59091;47.446;19.148;2024-02-21T02:14:25;9.11;68.15
71304;DHT22;59091;47.446;19.148;2024-02-21T02:16:51;9.00;68.59
71304;DHT22;59091;47.446;19.148;2024-02-21T02:19:16;8.80;69.00
71304;DHT22;59091;47.446;19.148;2024-02-21T02:21:46;8.90;69.09
71304;DHT22;59091;47.446;19.148;2024-02-21T02:24:13;8.87;69.36
71304;DHT22;59091;47.446;19.148;2024-02-21T02:26:39;8.73;69.72
71304;DHT22;59091;47.446;19.148;2024-02-21T02:29:05;8.74;69.98
71304;DHT22;59091;47.446;19.148;2024-02-21T02:31:30;8.53;70.49
71304;DHT22;59091;47.446;19.148;2024-02-21T02:33:56;8.77;70.24
71304;DHT22;59091;47.446;19.148;2024-02-21T02:36:21;8.81;69.87
71304;DHT22;59091;47.446;19.148;2024-02-21T02:38:46;8.72;70.15
71304;DHT22;59091;47.446;19.148;2024-02-21T02:41:12;8.66;70.41
71304;DHT22;59091;47.446;19.148;2024-02-21T02:43:37;8.54;70.68
71304;DHT22;59091;47.446;19.148;2024-02-21T02:46:03;8.46;71.27
71304;DHT22;59091;47.446;19.148;2024-02-21T02:48:29;8.60;70.90
71304;DHT22;59091;47.446;19.148;2024-02-21T02:50:54;8.33;71.14
71304;DHT22;59091;47.446;19.148;2024-02-21T02:53:20;8.46;71.29
71304;DHT22;59091;47.446;19.148;2024-02-21T02:55:45;8.45;71.53
71304;DHT22;59091;47.446;19.148;2024-02-21T02:58:11;8.36;71.67
71304;DHT22;59091;47.446;19.148;2024-02-21T03:00:37;8.50;71.32
71304;DHT22;59091;47.446;19.148;2024-02-21T03:03:03;8.48;71.13
71304;DHT22;59091;47.446;19.148;2024-02-21T03:05:29;8.49;71.19
71304;DHT22;59091;47.446;19.148;2024-02-21T03:07:55;8.45;71.23
71304;DHT22;59091;47.446;19.148;2024-02-21T03:10:20;8.48;71.44
71304;DHT22;59091;47.446;19.148;2024-02-21T03:12:46;8.45;71.39
71304;DHT22;59091;47.446;19.148;2024-02-21T03:15:12;8.36;71.90
71304;DHT22;59091;47.446;19.148;2024-02-21T03:17:38;8.52;71.54
71304;DHT22;59091;47.446;19.148;2024-02-21T03:20:05;8.45;71.63
71304;DHT22;59091;47.446;19.148;2024-02-21T03:22:31;8.54;71.32
71304;DHT22;59091;47.446;19.148;2024-02-21T03:24:57;8.36;71.55
71304;DHT22;59091;47.446;19.148;2024-02-21T03:27:23;8.22;71.89
71304;DHT22;59091;47.446;19.148;2024-02-21T03:29:48;8.35;71.61
71304;DHT22;59091;47.446;19.148;2024-02-21T03:32:14;8.33;70.84
71304;DHT22;59091;47.446;19.148;2024-02-21T03:34:39;8.19;70.39
71304;DHT22;59091;47.446;19.148;2024-02-21T03:37:05;8.22;70.64
71304;DHT22;59091;47.446;19.148;2024-02-21T03:39:33;8.13;70.24
71304;DHT22;59091;47.446;19.148;2024-02-21T03:41:59;8.16;70.11
71304;DHT22;59091;47.446;19.148;2024-02-21T03:44:30;8.28;69.45
71304;DHT22;59091;47.446;19.148;2024-02-21T03:46:56;8.41;69.20
71304;DHT22;59091;47.446;19.148;2024-02-21T03:49:22;8.28;69.12
71304;DHT22;59091;47.446;19.148;2024-02-21T03:51:47;8.38;69.16
71304;DHT22;59091;47.446;19.148;2024-02-21T03:54:13;8.42;69.02
71304;DHT22;59091;47.446;19.148;2024-02-21T03:56:38;8.46;68.89
71304;DHT22;59091;47.446;19.148;2024-02-21T03:59:08;8.48;68.69
71304;DHT22;59091;47.446;19.148;2024-02-21T04:01:34;8.42;69.28
71304;DHT22;59091;47.446;19.148;2024-02-21T04:03:59;8.32;69.92
71304;DHT22;59091;47.446;19.148;2024-02-21T04:06:25;8.33;70.32
71304;DHT22;59091;47.446;19.148;2024-02-21T04:08:50;8.26;70.66
71304;DHT22;59091;47.446;19.148;2024-02-21T04:11:16;8.15;71.43
71304;DHT22;59091;47.446;19.148;2024-02-21T04:13:42;8.12;71.92
71304;DHT22;59091;47.446;19.148;2024-02-21T04:16:08;7.98;72.59
71304;DHT22;59091;47.446;19.148;2024-02-21T04:18:33;7.77;72.99
71304;DHT22;59091;47.446;19.148;2024-02-21T04:20:59;7.98;72.56
71304;DHT22;59091;47.446;19.148;2024-02-21T04:23:24;7.78;72.83
71304;DHT22;59091;47.446;19.148;2024-02-21T04:25:49;7.73;73.45
71304;DHT22;59091;47.446;19.148;2024-02-21T04:28:15;7.87;72.90
71304;DHT22;59091;47.446;19.148;2024-02-21T04:30:40;7.91;72.71
71304;DHT22;59091;47.446;19.148;2024-02-21T04:33:06;7.80;73.20
71304;DHT22;59091;47.446;19.148;2024-02-21T04:35:31;7.80;73.09
71304;DHT22;59091;47.446;19.148;2024-02-21T04:37:56;7.75;73.31
71304;DHT22;59091;47.446;19.148;2024-02-21T04:40:22;7.73;73.21
71304;DHT22;59091;47.446;19.148;2024-02-21T04:42:47;7.56;73.68
71304;DHT22;59091;47.446;19.148;2024-02-21T04:45:13;7.63;73.61
71304;DHT22;59091;47.446;19.148;2024-02-21T04:47:38;7.54;73.77
71304;DHT22;59091;47.446;19.148;2024-02-21T04:50:04;7.61;73.81
71304;DHT22;59091;47.446;19.148;2024-02-21T04:52:29;7.69;73.39
71304;DHT22;59091;47.446;19.148;2024-02-21T04:54:55;7.53;73.56
71304;DHT22;59091;47.446;19.148;2024-02-21T04:57:21;7.66;73.37
71304;DHT22;59091;47.446;19.148;2024-02-21T04:59:47;7.78;72.94
71304;DHT22;59091;47.446;19.148;2024-02-21T05:02:13;7.85;72.50
71304;DHT22;59091;47.446;19.148;2024-02-21T05:04:39;7.88;72.24
71304;DHT22;59091;47.446;19.148;2024-02-21T05:07:05;7.75;72.06
71304;DHT22;59091;47.446;19.148;2024-02-21T05:09:31;7.82;72.13
71304;DHT22;59091;47.446;19.148;2024-02-21T05:11:56;7.82;72.01
71304;DHT22;59091;47.446;19.148;2024-02-21T05:14:24;7.74;72.18
71304;DHT22;59091;47.446;19.148;2024-02-21T05:16:50;7.64;72.63
71304;DHT22;59091;47.446;19.148;2024-02-21T05:19:15;7.60;73.39
71304;DHT22;59091;47.446;19.148;2024-02-21T05:21:40;7.47;73.74
71304;DHT22;59091;47.446;19.148;2024-02-21T05:24:06;7.60;73.42
71304;DHT22;59091;47.446;19.148;2024-02-21T05:26:31;7.66;73.12
71304;DHT22;59091;47.446;19.148;2024-02-21T05:28:57;7.71;72.81
71304;DHT22;59091;47.446;19.148;2024-02-21T05:31:24;7.66;72.75
71304;DHT22;59091;47.446;19.148;2024-02-21T05:33:49;7.57;72.54
71304;DHT22;59091;47.446;19.148;2024-02-21T05:36:15;7.60;72.51
71304;DHT22;59091;47.446;19.148;2024-02-21T05:38:40;7.57;72.62
71304;DHT22;59091;47.446;19.148;2024-02-21T05:41:06;7.33;73.24
71304;DHT22;59091;47.446;19.148;2024-02-21T05:43:32;7.42;73.62
71304;DHT22;59091;47.446;19.148;2024-02-21T05:45:57;7.44;74.84
71304;DHT22;59091;47.446;19.148;2024-02-21T05:48:23;7.47;75.81
71304;DHT22;59091;47.446;19.148;2024-02-21T05:50:49;7.37;74.52
71304;DHT22;59091;47.446;19.148;2024-02-21T05:53:15;7.49;74.15
71304;DHT22;59091;47.446;19.148;2024-02-21T05:55:40;7.43;74.18
71304;DHT22;59091;47.446;19.148;2024-02-21T05:58:06;7.47;73.98
71304;DHT22;59091;47.446;19.148;2024-02-21T06:00:32;7.50;73.92
71304;DHT22;59091;47.446;19.148;2024-02-21T06:02:58;8.13;80.05
71304;DHT22;59091;47.446;19.148;2024-02-21T06:05:23;8.09;75.94
71304;DHT22;59091;47.446;19.148;2024-02-21T06:07:49;8.16;75.64
71304;DHT22;59091;47.446;19.148;2024-02-21T06:10:14;8.03;73.00
71304;DHT22;59091;47.446;19.148;2024-02-21T06:12:40;8.03;72.43
71304;DHT22;59091;47.446;19.148;2024-02-21T06:15:06;7.91;72.49
71304;DHT22;59091;47.446;19.148;2024-02-21T06:17:31;7.94;72.34
71304;DHT22;59091;47.446;19.148;2024-02-21T06:19:56;7.84;73.58
71304;DHT22;59091;47.446;19.148;2024-02-21T06:22:22;7.77;72.94
71304;DHT22;59091;47.446;19.148;2024-02-21T06:24:47;7.91;72.80
71304;DHT22;59091;47.446;19.148;2024-02-21T06:27:13;7.99;74.07
71304;DHT22;59091;47.446;19.148;2024-02-21T06:29:40;8.06;72.73
71304;DHT22;59091;47.446;19.148;2024-02-21T06:32:05;8.05;72.24
71304;DHT22;59091;47.446;19.148;2024-02-21T06:34:31;8.05;72.17
71304;DHT22;59091;47.446;19.148;2024-02-21T06:36:57;8.01;72.34
71304;DHT22;59091;47.446;19.148;2024-02-21T06:39:22;8.08;72.17
71304;DHT22;59091;47.446;19.148;2024-02-21T06:41:48;8.19;74.85
71304;DHT22;59091;47.446;19.148;2024-02-21T06:44:16;8.26;74.16
71304;DHT22;59091;47.446;19.148;2024-02-21T06:46:41;8.32;72.32
71304;DHT22;59091;47.446;19.148;2024-02-21T06:49:07;8.48;74.73
71304;DHT22;59091;47.446;19.148;2024-02-21T06:51:32;8.45;71.99
71304;DHT22;59091;47.446;19.148;2024-02-21T06:53:58;8.25;71.49
71304;DHT22;59091;47.446;19.148;2024-02-21T06:56:24;8.28;71.39
71304;DHT22;59091;47.446;19.148;2024-02-21T06:58:56;8.41;70.98
71304;DHT22;59091;47.446;19.148;2024-02-21T07:01:22;8.41;70.93
71304;DHT22;59091;47.446;19.148;2024-02-21T07:03:48;8.42;71.01
71304;DHT22;59091;47.446;19.148;2024-02-21T07:06:13;8.46;70.89
71304;DHT22;59091;47.446;19.148;2024-02-21T07:08:39;8.49;70.68
71304;DHT22;59091;47.446;19.148;2024-02-21T07:11:05;8.48;72.16
71304;DHT22;59091;47.446;19.148;2024-02-21T07:13:30;8.50;70.86
71304;DHT22;59091;47.446;19.148;2024-02-21T07:15:56;8.50;71.18
71304;DHT22;59091;47.446;19.148;2024-02-21T07:18:21;8.63;72.84
71304;DHT22;59091;47.446;19.148;2024-02-21T07:20:46;8.77;76.45
71304;DHT22;59091;47.446;19.148;2024-02-21T07:23:12;8.90;74.84
71304;DHT22;59091;47.446;19.148;2024-02-21T07:25:38;8.87;70.99
71304;DHT22;59091;47.446;19.148;2024-02-21T07:28:05;8.94;69.59
71304;DHT22;59091;47.446;19.148;2024-02-21T07:30:30;8.93;69.27
71304;DHT22;59091;47.446;19.148;2024-02-21T07:32:56;8.90;69.80
71304;DHT22;59091;47.446;19.148;2024-02-21T07:35:21;8.99;68.69
71304;DHT22;59091;47.446;19.148;2024-02-21T07:37:47;9.07;68.22
71304;DHT22;59091;47.446;19.148;2024-02-21T07:40:16;9.07;68.05
71304;DHT22;59091;47.446;19.148;2024-02-21T07:42:42;9.14;67.84
71304;DHT22;59091;47.446;19.148;2024-02-21T07:45:08;9.04;67.86
71304;DHT22;59091;47.446;19.148;2024-02-21T07:47:34;9.15;67.78
71304;DHT22;59091;47.446;19.148;2024-02-21T07:50:00;9.15;67.95
71304;DHT22;59091;47.446;19.148;2024-02-21T07:52:25;9.21;67.63
71304;DHT22;59091;47.446;19.148;2024-02-21T07:54:51;9.10;67.97
71304;DHT22;59091;47.446;19.148;2024-02-21T07:57:16;9.15;67.91
71304;DHT22;59091;47.446;19.148;2024-02-21T07:59:42;9.13;68.34
71304;DHT22;59091;47.446;19.148;2024-02-21T08:02:07;9.23;68.26
71304;DHT22;59091;47.446;19.148;2024-02-21T08:04:33;9.42;67.04
71304;DHT22;59091;47.446;19.148;2024-02-21T08:06:58;9.35;66.08
71304;DHT22;59091;47.446;19.148;2024-02-21T08:09:29;9.35;65.84
71304;DHT22;59091;47.446;19.148;2024-02-21T08:11:55;9.45;66.07
71304;DHT22;59091;47.446;19.148;2024-02-21T08:14:21;9.36;66.31
71304;DHT22;59091;47.446;19.148;2024-02-21T08:16:47;9.35;66.50
71304;DHT22;59091;47.446;19.148;2024-02-21T08:19:12;9.48;66.50
71304;DHT22;59091;47.446;19.148;2024-02-21T08:21:38;9.45;66.41
71304;DHT22;59091;47.446;19.148;2024-02-21T08:24:04;9.63;67.66
71304;DHT22;59091;47.446;19.148;2024-02-21T08:26:29;9.85;66.20
71304;DHT22;59091;47.446;19.148;2024-02-21T08:28:58;9.72;65.74
71304;DHT22;59091;47.446;19.148;2024-02-21T08:31:25;9.63;65.92
71304;DHT22;59091;47.446;19.148;2024-02-21T08:33:57;9.85;65.34
71304;DHT22;59091;47.446;19.148;2024-02-21T08:36:28;9.78;64.86
71304;DHT22;59091;47.446;19.148;2024-02-21T08:38:53;9.83;65.09
71304;DHT22;59091;47.446;19.148;2024-02-21T08:41:19;9.86;65.80
71304;DHT22;59091;47.446;19.148;2024-02-21T08:43:44;10.10;64.14
71304;DHT22;59091;47.446;19.148;2024-02-21T08:46:09;10.71;72.06
71304;DHT22;59091;47.446;19.148;2024-02-21T08:48:35;10.78;65.69
71304;DHT22;59091;47.446;19.148;2024-02-21T08:51:00;10.91;69.88
71304;DHT22;59091;47.446;19.148;2024-02-21T08:53:26;11.05;62.73
71304;DHT22;59091;47.446;19.148;2024-02-21T08:55:51;10.88;61.92
71304;DHT22;59091;47.446;19.148;2024-02-21T08:58:17;10.61;62.42
71304;DHT22;59091;47.446;19.148;2024-02-21T09:00:43;10.72;62.31
71304;DHT22;59091;47.446;19.148;2024-02-21T09:03:08;10.71;62.36
71304;DHT22;59091;47.446;19.148;2024-02-21T09:05:33;10.69;62.17
71304;DHT22;59091;47.446;19.148;2024-02-21T09:08:00;10.74;61.90
71304;DHT22;59091;47.446;19.148;2024-02-21T09:10:25;10.72;60.97
71304;DHT22;59091;47.446;19.148;2024-02-21T09:12:51;10.98;61.34
71304;DHT22;59091;47.446;19.148;2024-02-21T09:15:16;11.23;61.56
71304;DHT22;59091;47.446;19.148;2024-02-21T09:17:42;11.33;60.58
71304;DHT22;59091;47.446;19.148;2024-02-21T09:20:07;11.26;60.14
71304;DHT22;59091;47.446;19.148;2024-02-21T09:22:33;11.32;59.64
71304;DHT22;59091;47.446;19.148;2024-02-21T09:25:00;11.19;58.32
71304;DHT22;59091;47.446;19.148;2024-02-21T09:27:25;11.06;59.32
71304;DHT22;59091;47.446;19.148;2024-02-21T09:29:51;11.22;58.60
71304;DHT22;59091;47.446;19.148;2024-02-21T09:32:18;11.28;58.68
71304;DHT22;59091;47.446;19.148;2024-02-21T09:34:44;11.74;62.26
71304;DHT22;59091;47.446;19.148;2024-02-21T09:37:10;11.52;56.40
71304;DHT22;59091;47.446;19.148;2024-02-21T09:39:36;11.49;57.94
71304;DHT22;59091;47.446;19.148;2024-02-21T09:42:05;11.63;57.74
71304;DHT22;59091;47.446;19.148;2024-02-21T09:44:36;11.77;57.62
71304;DHT22;59091;47.446;19.148;2024-02-21T09:47:29;11.78;57.38
71304;DHT22;59091;47.446;19.148;2024-02-21T09:50:00;11.87;58.56
71304;DHT22;59091;47.446;19.148;2024-02-21T09:52:26;12.00;57.09
71304;DHT22;59091;47.446;19.148;2024-02-21T09:54:53;11.88;56.80
71304;DHT22;59091;47.446;19.148;2024-02-21T09:57:20;11.74;56.52
71304;DHT22;59091;47.446;19.148;2024-02-21T09:59:45;11.66;56.17
71304;DHT22;59091;47.446;19.148;2024-02-21T10:02:11;11.94;68.94
71304;DHT22;59091;47.446;19.148;2024-02-21T10:04:39;11.87;56.79
71304;DHT22;59091;47.446;19.148;2024-02-21T10:07:05;11.95;56.95
71304;DHT22;59091;47.446;19.148;2024-02-21T10:09:30;11.91;56.65
71304;DHT22;59091;47.446;19.148;2024-02-21T10:12:07;11.80;56.12
71304;DHT22;59091;47.446;19.148;2024-02-21T10:14:33;11.84;55.93
71304;DHT22;59091;47.446;19.148;2024-02-21T10:16:58;11.87;56.10
71304;DHT22;59091;47.446;19.148;2024-02-21T10:19:24;11.90;56.04
71304;DHT22;59091;47.446;19.148;2024-02-21T10:22:03;11.87;55.54
71304;DHT22;59091;47.446;19.148;2024-02-21T10:24:29;11.93;55.86
71304;DHT22;59091;47.446;19.148;2024-02-21T10:27:05;12.01;55.80
71304;DHT22;59091;47.446;19.148;2024-02-21T10:29:34;11.98;55.17
71304;DHT22;59091;47.446;19.148;2024-02-21T10:32:10;11.94;55.66
71304;DHT22;59091;47.446;19.148;2024-02-21T10:34:37;12.08;55.68
71304;DHT22;59091;47.446;19.148;2024-02-21T10:37:09;12.17;55.75
71304;DHT22;59091;47.446;19.148;2024-02-21T10:39:39;12.32;55.82
71304;DHT22;59091;47.446;19.148;2024-02-21T10:42:05;12.58;55.18
71304;DHT22;59091;47.446;19.148;2024-02-21T10:44:32;12.85;54.74
71304;DHT22;59091;47.446;19.148;2024-02-21T10:46:58;12.86;53.41
71304;DHT22;59091;47.446;19.148;2024-02-21T10:49:27;13.06;52.33
71304;DHT22;59091;47.446;19.148;2024-02-21T10:52:13;13.24;52.63
71304;DHT22;59091;47.446;19.148;2024-02-21T10:54:48;13.23;51.73
71304;DHT22;59091;47.446;19.148;2024-02-21T10:57:19;13.14;51.83
71304;DHT22;59091;47.446;19.148;2024-02-21T10:59:48;13.37;51.14
71304;DHT22;59091;47.446;19.148;2024-02-21T11:02:14;13.24;51.78
71304;DHT22;59091;47.446;19.148;2024-02-21T11:04:40;13.62;52.50
71304;DHT22;59091;47.446;19.148;2024-02-21T11:07:06;13.70;52.57
71304;DHT22;59091;47.446;19.148;2024-02-21T11:09:33;13.48;53.36
71304;DHT22;59091;47.446;19.148;2024-02-21T11:12:01;13.54;53.51
71304;DHT22;59091;47.446;19.148;2024-02-21T11:14:29;13.79;53.41
71304;DHT22;59091;47.446;19.148;2024-02-21T11:16:58;13.78;52.08
71304;DHT22;59091;47.446;19.148;2024-02-21T11:19:25;13.68;51.62
71304;DHT22;59091;47.446;19.148;2024-02-21T11:21:52;13.55;52.08
71304;DHT22;59091;47.446;19.148;2024-02-21T11:24:34;13.60;52.16
71304;DHT22;59091;47.446;19.148;2024-02-21T11:32:19;13.43;52.43
71304;DHT22;59091;47.446;19.148;2024-02-21T11:35:01;13.64;51.81
71304;DHT22;59091;47.446;19.148;2024-02-21T11:37:28;13.72;51.29
71304;DHT22;59091;47.446;19.148;2024-02-21T11:39:54;13.83;51.80
71304;DHT22;59091;47.446;19.148;2024-02-21T11:42:20;13.79;50.96
71304;DHT22;59091;47.446;19.148;2024-02-21T11:44:46;13.99;53.93
71304;DHT22;59091;47.446;19.148;2024-02-21T11:47:11;13.98;50.36
71304;DHT22;59091;47.446;19.148;2024-02-21T11:49:47;13.86;49.96
71304;DHT22;59091;47.446;19.148;2024-02-21T11:52:14;13.72;50.39
71304;DHT22;59091;47.446;19.148;2024-02-21T11:54:44;14.02;62.24
71304;DHT22;59091;47.446;19.148;2024-02-21T11:57:10;14.21;52.80
71304;DHT22;59091;47.446;19.148;2024-02-21T11:59:36;14.06;50.14
71304;DHT22;59091;47.446;19.148;2024-02-21T12:02:02;14.11;50.31
71304;DHT22;59091;47.446;19.148;2024-02-21T12:04:30;14.13;50.53
71304;DHT22;59091;47.446;19.148;2024-02-21T12:06:57;14.05;50.53
71304;DHT22;59091;47.446;19.148;2024-02-21T12:09:23;14.05;50.22
71304;DHT22;59091;47.446;19.148;2024-02-21T12:12:02;13.99;49.37
71304;DHT22;59091;47.446;19.148;2024-02-21T12:14:32;14.09;49.45
71304;DHT22;59091;47.446;19.148;2024-02-21T12:16:59;14.02;49.20
71304;DHT22;59091;47.446;19.148;2024-02-21T12:19:25;13.77;50.07
71304;DHT22;59091;47.446;19.148;2024-02-21T12:21:50;13.72;49.72
71304;DHT22;59091;47.446;19.148;2024-02-21T12:24:21;13.65;48.49
71304;DHT22;59091;47.446;19.148;2024-02-21T12:26:48;13.72;48.51
71304;DHT22;59091;47.446;19.148;2024-02-21T12:29:13;13.51;49.71
71304;DHT22;59091;47.446;19.148;2024-02-21T12:31:39;13.60;50.24
71304;DHT22;59091;47.446;19.148;2024-02-21T12:34:04;13.47;50.25
71304;DHT22;59091;47.446;19.148;2024-02-21T12:36:31;13.46;50.62
71304;DHT22;59091;47.446;19.148;2024-02-21T12:38:57;13.70;51.51
71304;DHT22;59091;47.446;19.148;2024-02-21T12:41:22;13.92;50.59
71304;DHT22;59091;47.446;19.148;2024-02-21T12:43:47;14.04;49.71
71304;DHT22;59091;47.446;19.148;2024-02-21T12:46:13;14.02;50.05
71304;DHT22;59091;47.446;19.148;2024-02-21T12:48:38;14.25;49.87
71304;DHT22;59091;47.446;19.148;2024-02-21T12:51:05;14.19;47.95
71304;DHT22;59091;47.446;19.148;2024-02-21T12:53:30;14.04;48.06
71304;DHT22;59091;47.446;19.148;2024-02-21T12:55:56;13.72;48.37
71304;DHT22;59091;47.446;19.148;2024-02-21T12:58:22;13.54;48.93
71304;DHT22;59091;47.446;19.148;2024-02-21T13:00:47;13.44;48.67
71304;DHT22;59091;47.446;19.148;2024-02-21T13:03:14;13.60;49.54
71304;DHT22;59091;47.446;19.148;2024-02-21T13:05:39;13.51;48.66
71304;DHT22;59091;47.446;19.148;2024-02-21T13:08:09;13.40;49.07
71304;DHT22;59091;47.446;19.148;2024-02-21T13:10:34;13.62;48.82
71304;DHT22;59091;47.446;19.148;2024-02-21T13:13:01;13.65;49.06
71304;DHT22;59091;47.446;19.148;2024-02-21T13:15:27;13.58;48.89
71304;DHT22;59091;47.446;19.148;2024-02-21T13:17:53;13.41;49.28
71304;DHT22;59091;47.446;19.148;2024-02-21T13:20:20;13.17;49.01
71304;DHT22;59091;47.446;19.148;2024-02-21T13:22:46;13.14;48.95
71304;DHT22;59091;47.446;19.148;2024-02-21T13:25:11;13.09;48.87
71304;DHT22;59091;47.446;19.148;2024-02-21T13:27:40;13.10;49.78
71304;DHT22;59091;47.446;19.148;2024-02-21T13:30:06;13.03;50.06
71304;DHT22;59091;47.446;19.148;2024-02-21T13:32:34;12.95;50.53
71304;DHT22;59091;47.446;19.148;2024-02-21T13:34:59;13.06;50.54
71304;DHT22;59091;47.446;19.148;2024-02-21T13:37:26;13.09;50.83
71304;DHT22;59091;47.446;19.148;2024-02-21T13:39:52;13.16;49.92
71304;DHT22;59091;47.446;19.148;2024-02-21T13:42:18;13.23;49.66
71304;DHT22;59091;47.446;19.148;2024-02-21T13:44:44;13.19;49.02
71304;DHT22;59091;47.446;19.148;2024-02-21T13:47:10;13.23;48.66
71304;DHT22;59091;47.446;19.148;2024-02-21T13:49:36;13.44;48.17
71304;DHT22;59091;47.446;19.148;2024-02-21T13:52:02;13.48;47.35
71304;DHT22;59091;47.446;19.148;2024-02-21T13:54:27;13.54;46.60
71304;DHT22;59091;47.446;19.148;2024-02-21T13:56:53;13.54;46.57
71304;DHT22;59091;47.446;19.148;2024-02-21T13:59:18;13.48;46.85
71304;DHT22;59091;47.446;19.148;2024-02-21T14:01:43;13.40;46.78
71304;DHT22;59091;47.446;19.148;2024-02-21T14:04:09;13.41;46.72
71304;DHT22;59091;47.446;19.148;2024-02-21T14:06:34;13.36;46.64
71304;DHT22;59091;47.446;19.148;2024-02-21T14:09:00;13.47;46.42
71304;DHT22;59091;47.446;19.148;2024-02-21T14:11:26;13.30;46.59
71304;DHT22;59091;47.446;19.148;2024-02-21T14:13:52;13.27;46.74
71304;DHT22;59091;47.446;19.148;2024-02-21T14:16:18;13.30;46.84
71304;DHT22;59091;47.446;19.148;2024-02-21T14:18:43;13.41;46.70
71304;DHT22;59091;47.446;19.148;2024-02-21T14:21:09;13.37;47.00
71304;DHT22;59091;47.446;19.148;2024-02-21T14:23:37;13.23;47.07
71304;DHT22;59091;47.446;19.148;2024-02-21T14:26:04;13.17;47.62
71304;DHT22;59091;47.446;19.148;2024-02-21T14:28:30;13.10;48.06
71304;DHT22;59091;47.446;19.148;2024-02-21T14:30:55;13.11;48.24
71304;DHT22;59091;47.446;19.148;2024-02-21T14:33:28;13.24;47.85
71304;DHT22;59091;47.446;19.148;2024-02-21T14:35:55;13.28;48.28
71304;DHT22;59091;47.446;19.148;2024-02-21T14:38:20;13.19;47.86
71304;DHT22;59091;47.446;19.148;2024-02-21T14:40:46;13.33;47.53
71304;DHT22;59091;47.446;19.148;2024-02-21T14:43:11;13.34;47.57
71304;DHT22;59091;47.446;19.148;2024-02-21T14:45:36;13.34;47.75
71304;DHT22;59091;47.446;19.148;2024-02-21T14:48:04;13.47;47.57
71304;DHT22;59091;47.446;19.148;2024-02-21T14:50:29;13.53;47.62
71304;DHT22;59091;47.446;19.148;2024-02-21T14:52:55;13.27;47.52
71304;DHT22;59091;47.446;19.148;2024-02-21T14:55:20;13.03;47.74
71304;DHT22;59091;47.446;19.148;2024-02-21T14:57:46;13.10;47.73
71304;DHT22;59091;47.446;19.148;2024-02-21T15:00:11;13.19;47.25
71304;DHT22;59091;47.446;19.148;2024-02-21T15:02:38;13.31;49.01
71304;DHT22;59091;47.446;19.148;2024-02-21T15:05:04;13.26;47.22
71304;DHT22;59091;47.446;19.148;2024-02-21T15:07:31;13.21;47.27
71304;DHT22;59091;47.446;19.148;2024-02-21T15:09:57;13.21;47.03
71304;DHT22;59091;47.446;19.148;2024-02-21T15:12:23;13.36;46.77
71304;DHT22;59091;47.446;19.148;2024-02-21T15:14:49;13.28;46.85
71304;DHT22;59091;47.446;19.148;2024-02-21T15:17:15;13.48;48.69
71304;DHT22;59091;47.446;19.148;2024-02-21T15:19:40;13.58;47.28
71304;DHT22;59091;47.446;19.148;2024-02-21T15:22:12;13.58;46.51
71304;DHT22;59091;47.446;19.148;2024-02-21T15:24:41;13.79;53.33